sensor_id;sensor_type;location;lat;lon;timestamp;temperature;humidity
22968;DHT22;11650;48.106;-1.696;2024-03-02T00:00:04;5.20;99.90
22968;DHT22;11650;48.106;-1.696;2024-03-02T00:02:40;5.10;99.90
22968;DHT22;11650;48.106;-1.696;2024-03-02T00:05:06;5.30;99.90
22968;DHT22;11650;48.106;-1.696;2024-03-02T00:07:32;5.30;99.90
22968;DHT22;11650;48.106;-1.696;2024-03-02T00:09:58;5.50;99.90
22968;DHT22;11650;48.106;-1.696;2024-03-02T00:12:24;5.60;99.90
22968;DHT22;11650;48.106;-1.696;2024-03-02T00:14:51;5.60;99.90
22968;DHT22;11650;48.106;-1.696;2024-03-02T00:17:24;5.60;99.90
22968;DHT22;11650;48.106;-1.696;2024-03-02T00:19:50;5.60;99.90
22968;DHT22;11650;48.106;-1.696;2024-03-02T00:22:16;5.70;99.90
22968;DHT22;11650;48.106;-1.696;2024-03-02T00:24:42;5.70;99.90
22968;DHT22;11650;48.106;-1.696;2024-03-02T00:27:08;5.70;99.90
22968;DHT22;11650;48.106;-1.696;2024-03-02T00:29:38;5.60;99.90
22968;DHT22;11650;48.106;-1.696;2024-03-02T00:32:13;5.60;99.90
22968;DHT22;11650;48.106;-1.696;2024-03-02T00:34:39;5.60;99.90
22968;DHT22;11650;48.106;-1.696;2024-03-02T00:37:05;5.70;99.90
22968;DHT22;11650;48.106;-1.696;2024-03-02T00:39:31;5.70;99.90
22968;DHT22;11650;48.106;-1.696;2024-03-02T00:41:57;5.70;99.90
22968;DHT22;11650;48.106;-1.696;2024-03-02T00:44:25;5.70;99.90
22968;DHT22;11650;48.106;-1.696;2024-03-02T00:46:52;5.80;99.90
22968;DHT22;11650;48.106;-1.696;2024-03-02T00:49:21;5.80;99.90
22968;DHT22;11650;48.106;-1.696;2024-03-02T00:51:48;5.80;99.90
22968;DHT22;11650;48.106;-1.696;2024-03-02T00:54:15;5.80;99.90
22968;DHT22;11650;48.106;-1.696;2024-03-02T00:56:41;5.80;99.90
22968;DHT22;11650;48.106;-1.696;2024-03-02T00:59:07;5.70;99.90
22968;DHT22;11650;48.106;-1.696;2024-03-02T01:01:34;5.80;99.90
22968;DHT22;11650;48.106;-1.696;2024-03-02T01:04:00;5.80;99.90
22968;DHT22;11650;48.106;-1.696;2024-03-02T01:06:26;5.80;99.90
22968;DHT22;11650;48.106;-1.696;2024-03-02T01:08:51;5.90;99.90
22968;DHT22;11650;48.106;-1.696;2024-03-02T01:11:17;6.00;99.90
22968;DHT22;11650;48.106;-1.696;2024-03-02T01:13:44;6.00;99.90
22968;DHT22;11650;48.106;-1.696;2024-03-02T01:16:10;6.10;99.90
22968;DHT22;11650;48.106;-1.696;2024-03-02T01:18:35;6.10;99.90
22968;DHT22;11650;48.106;-1.696;2024-03-02T01:21:01;6.00;99.90
22968;DHT22;11650;48.106;-1.696;2024-03-02T01:23:27;5.90;99.90
22968;DHT22;11650;48.106;-1.696;2024-03-02T01:25:53;5.90;99.90
22968;DHT22;11650;48.106;-1.696;2024-03-02T01:28:19;5.80;99.90
22968;DHT22;11650;48.106;-1.696;2024-03-02T01:30:46;5.90;99.90
22968;DHT22;11650;48.106;-1.696;2024-03-02T01:33:11;5.80;99.90
22968;DHT22;11650;48.106;-1.696;2024-03-02T01:35:37;5.90;99.90
22968;DHT22;11650;48.106;-1.696;2024-03-02T01:38:03;5.80;99.90
22968;DHT22;11650;48.106;-1.696;2024-03-02T01:40:32;5.80;99.90
22968;DHT22;11650;48.106;-1.696;2024-03-02T01:42:58;5.70;99.90
22968;DHT22;11650;48.106;-1.696;2024-03-02T01:45:24;5.70;99.90
22968;DHT22;11650;48.106;-1.696;2024-03-02T01:47:49;5.80;99.90
22968;DHT22;11650;48.106;-1.696;2024-03-02T01:50:16;5.80;99.90
22968;DHT22;11650;48.106;-1.696;2024-03-02T01:52:41;5.80;99.90
22968;DHT22;11650;48.106;-1.696;2024-03-02T01:55:09;5.80;99.90
22968;DHT22;11650;48.106;-1.696;2024-03-02T01:57:35;5.90;99.90
22968;DHT22;11650;48.106;-1.696;2024-03-02T02:00:01;5.90;99.90
22968;DHT22;11650;48.106;-1.696;2024-03-02T02:02:28;5.90;99.90
22968;DHT22;11650;48.106;-1.696;2024-03-02T02:04:54;5.90;99.90
22968;DHT22;11650;48.106;-1.696;2024-03-02T02:07:19;5.90;99.90
22968;DHT22;11650;48.106;-1.696;2024-03-02T02:09:45;6.00;99.90
22968;DHT22;11650;48.106;-1.696;2024-03-02T02:12:11;5.90;99.90
22968;DHT22;11650;48.106;-1.696;2024-03-02T02:14:36;5.90;99.90
22968;DHT22;11650;48.106;-1.696;2024-03-02T02:17:02;5.90;99.90
22968;DHT22;11650;48.106;-1.696;2024-03-02T02:19:28;5.90;99.90
22968;DHT22;11650;48.106;-1.696;2024-03-02T02:21:54;6.00;99.90
22968;DHT22;11650;48.106;-1.696;2024-03-02T02:24:20;6.00;99.90
22968;DHT22;11650;48.106;-1.696;2024-03-02T02:26:46;6.10;99.90
22968;DHT22;11650;48.106;-1.696;2024-03-02T02:29:11;6.20;99.90
22968;DHT22;11650;48.106;-1.696;2024-03-02T02:31:40;6.10;99.90
22968;DHT22;11650;48.106;-1.696;2024-03-02T02:34:06;6.20;99.90
22968;DHT22;11650;48.106;-1.696;2024-03-02T02:36:33;6.10;99.90
22968;DHT22;11650;48.106;-1.696;2024-03-02T02:39:02;6.10;99.90
22968;DHT22;11650;48.106;-1.696;2024-03-02T02:41:32;6.00;99.90
22968;DHT22;11650;48.106;-1.696;2024-03-02T02:43:57;6.00;99.90
22968;DHT22;11650;48.106;-1.696;2024-03-02T02:46:23;5.90;99.90
22968;DHT22;11650;48.106;-1.696;2024-03-02T02:48:49;6.00;99.90
22968;DHT22;11650;48.106;-1.696;2024-03-02T02:51:16;5.90;99.90
22968;DHT22;11650;48.106;-1.696;2024-03-02T02:53:42;5.90;99.90
22968;DHT22;11650;48.106;-1.696;2024-03-02T02:56:08;5.90;99.90
22968;DHT22;11650;48.106;-1.696;2024-03-02T02:58:33;5.90;99.90
22968;DHT22;11650;48.106;-1.696;2024-03-02T03:00:59;5.90;99.90
22968;DHT22;11650;48.106;-1.696;2024-03-02T03:03:25;5.90;99.90
22968;DHT22;11650;48.106;-1.696;2024-03-02T03:05:50;5.90;99.90
22968;DHT22;11650;48.106;-1.696;2024-03-02T03:08:16;5.90;99.90
22968;DHT22;11650;48.106;-1.696;2024-03-02T03:10:42;5.90;99.90
22968;DHT22;11650;48.106;-1.696;2024-03-02T03:13:07;5.90;99.90
22968;DHT22;11650;48.106;-1.696;2024-03-02T03:15:35;5.90;99.90
22968;DHT22;11650;48.106;-1.696;2024-03-02T03:18:02;5.90;99.90
22968;DHT22;11650;48.106;-1.696;2024-03-02T03:20:29;5.90;99.90
22968;DHT22;11650;48.106;-1.696;2024-03-02T03:22:55;5.90;99.90
22968;DHT22;11650;48.106;-1.696;2024-03-02T03:25:21;5.90;99.90
22968;DHT22;11650;48.106;-1.696;2024-03-02T03:27:47;5.90;99.90
22968;DHT22;11650;48.106;-1.696;2024-03-02T03:30:12;5.90;99.90
22968;DHT22;11650;48.106;-1.696;2024-03-02T03:32:38;5.90;99.90
22968;DHT22;11650;48.106;-1.696;2024-03-02T03:35:04;5.80;99.90
22968;DHT22;11650;48.106;-1.696;2024-03-02T03:37:31;5.80;99.90
22968;DHT22;11650;48.106;-1.696;2024-03-02T03:39:59;5.80;99.90
22968;DHT22;11650;48.106;-1.696;2024-03-02T03:42:25;5.70;99.90
22968;DHT22;11650;48.106;-1.696;2024-03-02T03:44:50;5.70;99.90
22968;DHT22;11650;48.106;-1.696;2024-03-02T03:47:16;5.70;99.90
22968;DHT22;11650;48.106;-1.696;2024-03-02T03:49:42;5.80;99.90
22968;DHT22;11650;48.106;-1.696;2024-03-02T03:52:08;5.80;99.90
22968;DHT22;11650;48.106;-1.696;2024-03-02T03:54:34;5.80;99.90
22968;DHT22;11650;48.106;-1.696;2024-03-02T03:56:59;5.80;99.90
22968;DHT22;11650;48.106;-1.696;2024-03-02T03:59:25;5.80;99.90
22968;DHT22;11650;48.106;-1.696;2024-03-02T04:01:50;5.80;99.90
22968;DHT22;11650;48.106;-1.696;2024-03-02T04:04:16;5.80;99.90
22968;DHT22;11650;48.106;-1.696;2024-03-02T04:06:42;5.70;99.90
22968;DHT22;11650;48.106;-1.696;2024-03-02T04:09:08;5.70;99.90
22968;DHT22;11650;48.106;-1.696;2024-03-02T04:11:33;5.70;99.90
22968;DHT22;11650;48.106;-1.696;2024-03-02T04:13:59;5.70;99.90
22968;DHT22;11650;48.106;-1.696;2024-03-02T04:16:24;5.60;99.90
22968;DHT22;11650;48.106;-1.696;2024-03-02T04:18:50;5.50;99.90
22968;DHT22;11650;48.106;-1.696;2024-03-02T04:21:16;5.40;99.90
22968;DHT22;11650;48.106;-1.696;2024-03-02T04:23:41;5.40;99.90
22968;DHT22;11650;48.106;-1.696;2024-03-02T04:26:07;5.30;99.90
22968;DHT22;11650;48.106;-1.696;2024-03-02T04:28:32;5.30;99.90
22968;DHT22;11650;48.106;-1.696;2024-03-02T04:30:58;5.30;99.90
22968;DHT22;11650;48.106;-1.696;2024-03-02T04:33:23;5.40;99.90
22968;DHT22;11650;48.106;-1.696;2024-03-02T04:35:49;5.30;99.90
22968;DHT22;11650;48.106;-1.696;2024-03-02T04:38:15;5.30;99.90
22968;DHT22;11650;48.106;-1.696;2024-03-02T04:40:40;5.30;99.90
22968;DHT22;11650;48.106;-1.696;2024-03-02T04:43:06;5.30;99.90
22968;DHT22;11650;48.106;-1.696;2024-03-02T04:45:33;5.20;99.90
22968;DHT22;11650;48.106;-1.696;2024-03-02T04:47:59;5.20;99.90
22968;DHT22;11650;48.106;-1.696;2024-03-02T04:50:25;5.20;99.90
22968;DHT22;11650;48.106;-1.696;2024-03-02T04:52:50;5.30;99.90
22968;DHT22;11650;48.106;-1.696;2024-03-02T04:55:16;5.30;99.90
22968;DHT22;11650;48.106;-1.696;2024-03-02T04:57:41;5.30;99.90
22968;DHT22;11650;48.106;-1.696;2024-03-02T05:00:07;5.30;99.90
22968;DHT22;11650;48.106;-1.696;2024-03-02T05:02:34;5.40;99.90
22968;DHT22;11650;48.106;-1.696;2024-03-02T05:05:00;5.50;99.90
22968;DHT22;11650;48.106;-1.696;2024-03-02T05:07:26;5.50;99.90
22968;DHT22;11650;48.106;-1.696;2024-03-02T05:09:51;5.60;99.90
22968;DHT22;11650;48.106;-1.696;2024-03-02T05:12:17;5.50;99.90
22968;DHT22;11650;48.106;-1.696;2024-03-02T05:15:01;5.60;99.90
22968;DHT22;11650;48.106;-1.696;2024-03-02T05:17:27;5.50;99.90
22968;DHT22;11650;48.106;-1.696;2024-03-02T05:19:52;5.50;99.90
22968;DHT22;11650;48.106;-1.696;2024-03-02T05:22:18;5.60;99.90
22968;DHT22;11650;48.106;-1.696;2024-03-02T05:24:44;5.50;99.90
22968;DHT22;11650;48.106;-1.696;2024-03-02T05:27:09;5.50;99.90
22968;DHT22;11650;48.106;-1.696;2024-03-02T05:29:35;5.50;99.90
22968;DHT22;11650;48.106;-1.696;2024-03-02T05:32:00;5.50;99.90
22968;DHT22;11650;48.106;-1.696;2024-03-02T05:34:26;5.40;99.90
22968;DHT22;11650;48.106;-1.696;2024-03-02T05:36:51;5.50;99.90
22968;DHT22;11650;48.106;-1.696;2024-03-02T05:39:17;5.40;99.90
22968;DHT22;11650;48.106;-1.696;2024-03-02T05:41:43;5.40;99.90
22968;DHT22;11650;48.106;-1.696;2024-03-02T05:44:08;5.40;99.90
22968;DHT22;11650;48.106;-1.696;2024-03-02T05:46:34;5.30;99.90
22968;DHT22;11650;48.106;-1.696;2024-03-02T05:49:00;5.40;99.90
22968;DHT22;11650;48.106;-1.696;2024-03-02T05:51:26;5.40;99.90
22968;DHT22;11650;48.106;-1.696;2024-03-02T05:53:52;5.40;99.90
22968;DHT22;11650;48.106;-1.696;2024-03-02T05:56:17;5.40;99.90
22968;DHT22;11650;48.106;-1.696;2024-03-02T05:58:43;5.40;99.90
22968;DHT22;11650;48.106;-1.696;2024-03-02T06:01:14;5.50;99.90
22968;DHT22;11650;48.106;-1.696;2024-03-02T06:03:40;5.40;99.90
22968;DHT22;11650;48.106;-1.696;2024-03-02T06:06:05;5.50;99.90
22968;DHT22;11650;48.106;-1.696;2024-03-02T06:08:31;5.50;99.90
22968;DHT22;11650;48.106;-1.696;2024-03-02T06:10:57;5.50;99.90
22968;DHT22;11650;48.106;-1.696;2024-03-02T06:13:22;5.50;99.90
22968;DHT22;11650;48.106;-1.696;2024-03-02T06:15:48;5.50;99.90
22968;DHT22;11650;48.106;-1.696;2024-03-02T06:18:14;5.60;99.90
22968;DHT22;11650;48.106;-1.696;2024-03-02T06:20:39;5.50;99.90
22968;DHT22;11650;48.106;-1.696;2024-03-02T06:23:05;5.60;99.90
22968;DHT22;11650;48.106;-1.696;2024-03-02T06:25:31;5.50;99.90
22968;DHT22;11650;48.106;-1.696;2024-03-02T06:27:56;5.50;99.90
22968;DHT22;11650;48.106;-1.696;2024-03-02T06:30:22;5.50;99.90
22968;DHT22;11650;48.106;-1.696;2024-03-02T06:32:47;5.50;99.90
22968;DHT22;11650;48.106;-1.696;2024-03-02T06:35:13;5.50;99.90
22968;DHT22;11650;48.106;-1.696;2024-03-02T06:37:39;5.50;99.90
22968;DHT22;11650;48.106;-1.696;2024-03-02T06:40:06;5.50;99.90
22968;DHT22;11650;48.106;-1.696;2024-03-02T06:42:33;5.40;99.90
22968;DHT22;11650;48.106;-1.696;2024-03-02T06:44:59;5.40;99.90
22968;DHT22;11650;48.106;-1.696;2024-03-02T06:47:25;5.40;99.90
22968;DHT22;11650;48.106;-1.696;2024-03-02T06:49:51;5.40;99.90
22968;DHT22;11650;48.106;-1.696;2024-03-02T06:52:17;5.40;99.90
22968;DHT22;11650;48.106;-1.696;2024-03-02T06:54:42;5.40;99.90
22968;DHT22;11650;48.106;-1.696;2024-03-02T06:57:08;5.40;99.90
22968;DHT22;11650;48.106;-1.696;2024-03-02T06:59:33;5.40;99.90
22968;DHT22;11650;48.106;-1.696;2024-03-02T07:01:59;5.40;99.90
22968;DHT22;11650;48.106;-1.696;2024-03-02T07:04:25;5.40;99.90
22968;DHT22;11650;48.106;-1.696;2024-03-02T07:06:50;5.40;99.90
22968;DHT22;11650;48.106;-1.696;2024-03-02T07:09:20;5.40;99.90
22968;DHT22;11650;48.106;-1.696;2024-03-02T07:11:48;5.40;99.90
22968;DHT22;11650;48.106;-1.696;2024-03-02T07:14:14;5.40;99.90
22968;DHT22;11650;48.106;-1.696;2024-03-02T07:16:40;5.30;99.90
22968;DHT22;11650;48.106;-1.696;2024-03-02T07:19:06;5.30;99.90
22968;DHT22;11650;48.106;-1.696;2024-03-02T07:21:32;5.30;99.90
22968;DHT22;11650;48.106;-1.696;2024-03-02T07:23:58;5.30;99.90
22968;DHT22;11650;48.106;-1.696;2024-03-02T07:26:24;5.20;99.90
22968;DHT22;11650;48.106;-1.696;2024-03-02T07:28:51;5.20;99.90
22968;DHT22;11650;48.106;-1.696;2024-03-02T07:31:17;5.20;99.90
22968;DHT22;11650;48.106;-1.696;2024-03-02T07:33:45;5.10;99.90
22968;DHT22;11650;48.106;-1.696;2024-03-02T07:36:12;5.20;99.90
22968;DHT22;11650;48.106;-1.696;2024-03-02T07:38:37;5.10;99.90
22968;DHT22;11650;48.106;-1.696;2024-03-02T07:41:03;5.10;99.90
22968;DHT22;11650;48.106;-1.696;2024-03-02T07:43:30;5.20;99.90
22968;DHT22;11650;48.106;-1.696;2024-03-02T07:45:57;5.20;99.90
22968;DHT22;11650;48.106;-1.696;2024-03-02T07:48:23;5.20;99.90
22968;DHT22;11650;48.106;-1.696;2024-03-02T07:50:48;5.20;99.90
22968;DHT22;11650;48.106;-1.696;2024-03-02T07:53:14;5.30;99.90
22968;DHT22;11650;48.106;-1.696;2024-03-02T07:55:40;5.30;99.90
22968;DHT22;11650;48.106;-1.696;2024-03-02T07:58:06;5.40;99.90
22968;DHT22;11650;48.106;-1.696;2024-03-02T08:00:32;5.50;99.90
22968;DHT22;11650;48.106;-1.696;2024-03-02T08:02:58;5.50;99.90
22968;DHT22;11650;48.106;-1.696;2024-03-02T08:05:24;5.50;99.90
22968;DHT22;11650;48.106;-1.696;2024-03-02T08:07:49;5.60;99.90
22968;DHT22;11650;48.106;-1.696;2024-03-02T08:10:18;5.60;99.90
22968;DHT22;11650;48.106;-1.696;2024-03-02T08:12:45;5.60;99.90
22968;DHT22;11650;48.106;-1.696;2024-03-02T08:15:11;5.70;99.90
22968;DHT22;11650;48.106;-1.696;2024-03-02T08:17:39;5.70;99.90
22968;DHT22;11650;48.106;-1.696;2024-03-02T08:20:11;5.80;99.90
22968;DHT22;11650;48.106;-1.696;2024-03-02T08:22:36;5.90;99.90
22968;DHT22;11650;48.106;-1.696;2024-03-02T08:25:02;5.90;99.90
22968;DHT22;11650;48.106;-1.696;2024-03-02T08:27:28;5.90;99.90
22968;DHT22;11650;48.106;-1.696;2024-03-02T08:29:54;5.90;99.90
22968;DHT22;11650;48.106;-1.696;2024-03-02T08:32:19;5.90;99.90
22968;DHT22;11650;48.106;-1.696;2024-03-02T08:34:45;5.80;99.90
22968;DHT22;11650;48.106;-1.696;2024-03-02T08:37:11;5.80;99.90
22968;DHT22;11650;48.106;-1.696;2024-03-02T08:39:36;5.70;99.90
22968;DHT22;11650;48.106;-1.696;2024-03-02T08:42:02;5.70;99.90
22968;DHT22;11650;48.106;-1.696;2024-03-02T08:44:29;5.80;99.90
22968;DHT22;11650;48.106;-1.696;2024-03-02T08:46:55;5.70;99.90
22968;DHT22;11650;48.106;-1.696;2024-03-02T08:49:21;5.70;99.90
22968;DHT22;11650;48.106;-1.696;2024-03-02T08:51:46;5.70;99.90
22968;DHT22;11650;48.106;-1.696;2024-03-02T08:54:21;5.70;99.90
22968;DHT22;11650;48.106;-1.696;2024-03-02T08:56:47;5.70;99.90
22968;DHT22;11650;48.106;-1.696;2024-03-02T08:59:13;5.80;99.90
22968;DHT22;11650;48.106;-1.696;2024-03-02T09:01:38;5.90;99.90
22968;DHT22;11650;48.106;-1.696;2024-03-02T09:04:07;5.90;99.90
22968;DHT22;11650;48.106;-1.696;2024-03-02T09:06:34;5.90;99.90
22968;DHT22;11650;48.106;-1.696;2024-03-02T09:09:00;5.90;99.90
22968;DHT22;11650;48.106;-1.696;2024-03-02T09:11:26;5.90;99.90
22968;DHT22;11650;48.106;-1.696;2024-03-02T09:13:51;5.80;99.90
22968;DHT22;11650;48.106;-1.696;2024-03-02T09:16:18;5.90;99.90
22968;DHT22;11650;48.106;-1.696;2024-03-02T09:18:44;5.90;99.90
22968;DHT22;11650;48.106;-1.696;2024-03-02T09:21:09;5.90;99.90
22968;DHT22;11650;48.106;-1.696;2024-03-02T09:23:35;5.90;99.90
22968;DHT22;11650;48.106;-1.696;2024-03-02T09:26:01;6.00;99.90
22968;DHT22;11650;48.106;-1.696;2024-03-02T09:28:26;6.10;99.90
22968;DHT22;11650;48.106;-1.696;2024-03-02T09:30:52;6.20;99.90
22968;DHT22;11650;48.106;-1.696;2024-03-02T09:33:18;6.40;99.90
22968;DHT22;11650;48.106;-1.696;2024-03-02T09:35:43;6.70;99.90
22968;DHT22;11650;48.106;-1.696;2024-03-02T09:38:09;6.90;99.90
22968;DHT22;11650;48.106;-1.696;2024-03-02T09:40:34;7.00;99.90
22968;DHT22;11650;48.106;-1.696;2024-03-02T09:43:00;7.10;99.90
22968;DHT22;11650;48.106;-1.696;2024-03-02T09:45:26;7.20;99.90
22968;DHT22;11650;48.106;-1.696;2024-03-02T09:47:52;7.20;99.90
22968;DHT22;11650;48.106;-1.696;2024-03-02T09:50:17;7.20;99.90
22968;DHT22;11650;48.106;-1.696;2024-03-02T09:52:44;7.30;99.90
22968;DHT22;11650;48.106;-1.696;2024-03-02T09:55:14;7.30;99.90
22968;DHT22;11650;48.106;-1.696;2024-03-02T09:57:41;7.30;99.90
22968;DHT22;11650;48.106;-1.696;2024-03-02T10:00:08;7.40;99.90
22968;DHT22;11650;48.106;-1.696;2024-03-02T10:02:34;7.60;99.90
22968;DHT22;11650;48.106;-1.696;2024-03-02T10:04:59;7.80;99.90
22968;DHT22;11650;48.106;-1.696;2024-03-02T10:07:25;7.90;99.90
22968;DHT22;11650;48.106;-1.696;2024-03-02T10:09:50;7.90;99.90
22968;DHT22;11650;48.106;-1.696;2024-03-02T10:12:18;7.90;99.90
22968;DHT22;11650;48.106;-1.696;2024-03-02T10:14:44;8.00;99.90
22968;DHT22;11650;48.106;-1.696;2024-03-02T10:17:12;8.20;99.90
22968;DHT22;11650;48.106;-1.696;2024-03-02T10:19:38;8.20;99.90
22968;DHT22;11650;48.106;-1.696;2024-03-02T10:22:09;8.20;99.90
22968;DHT22;11650;48.106;-1.696;2024-03-02T10:24:40;8.00;99.90
22968;DHT22;11650;48.106;-1.696;2024-03-02T10:27:27;7.90;99.90
22968;DHT22;11650;48.106;-1.696;2024-03-02T10:29:52;7.90;99.90
22968;DHT22;11650;48.106;-1.696;2024-03-02T10:32:22;7.90;99.90
22968;DHT22;11650;48.106;-1.696;2024-03-02T10:34:48;8.10;99.90
22968;DHT22;11650;48.106;-1.696;2024-03-02T10:37:14;8.10;99.90
22968;DHT22;11650;48.106;-1.696;2024-03-02T10:39:40;8.20;99.90
22968;DHT22;11650;48.106;-1.696;2024-03-02T10:42:07;8.30;99.90
22968;DHT22;11650;48.106;-1.696;2024-03-02T10:44:33;8.40;99.90
22968;DHT22;11650;48.106;-1.696;2024-03-02T10:47:03;8.40;99.90
22968;DHT22;11650;48.106;-1.696;2024-03-02T10:49:30;8.50;99.90
22968;DHT22;11650;48.106;-1.696;2024-03-02T10:51:59;8.60;99.90
22968;DHT22;11650;48.106;-1.696;2024-03-02T10:54:25;8.60;99.90
22968;DHT22;11650;48.106;-1.696;2024-03-02T10:57:03;8.50;99.90
22968;DHT22;11650;48.106;-1.696;2024-03-02T11:01:59;8.60;99.90
22968;DHT22;11650;48.106;-1.696;2024-03-02T11:04:27;8.60;99.90
22968;DHT22;11650;48.106;-1.696;2024-03-02T11:06:59;8.60;99.90
22968;DHT22;11650;48.106;-1.696;2024-03-02T11:09:27;8.70;99.90
22968;DHT22;11650;48.106;-1.696;2024-03-02T11:14:40;9.10;99.90
22968;DHT22;11650;48.106;-1.696;2024-03-02T11:17:08;9.30;99.90
22968;DHT22;11650;48.106;-1.696;2024-03-02T11:19:35;9.30;99.90
22968;DHT22;11650;48.106;-1.696;2024-03-02T11:22:02;9.50;99.90
22968;DHT22;11650;48.106;-1.696;2024-03-02T11:24:29;9.70;99.90
22968;DHT22;11650;48.106;-1.696;2024-03-02T11:27:03;9.70;99.90
22968;DHT22;11650;48.106;-1.696;2024-03-02T11:32:05;10.10;99.90
22968;DHT22;11650;48.106;-1.696;2024-03-02T11:34:33;10.40;99.90
22968;DHT22;11650;48.106;-1.696;2024-03-02T11:37:01;10.50;99.90
22968;DHT22;11650;48.106;-1.696;2024-03-02T11:39:27;10.40;99.90
22968;DHT22;11650;48.106;-1.696;2024-03-02T11:41:54;10.20;99.90
22968;DHT22;11650;48.106;-1.696;2024-03-02T11:44:20;10.00;99.90
22968;DHT22;11650;48.106;-1.696;2024-03-02T11:46:52;9.90;99.90
22968;DHT22;11650;48.106;-1.696;2024-03-02T11:50:12;9.80;99.90
22968;DHT22;11650;48.106;-1.696;2024-03-02T11:52:32;9.70;99.90
22968;DHT22;11650;48.106;-1.696;2024-03-02T11:54:58;9.60;99.90
22968;DHT22;11650;48.106;-1.696;2024-03-02T11:57:26;9.60;99.90
22968;DHT22;11650;48.106;-1.696;2024-03-02T11:59:56;9.80;99.90
22968;DHT22;11650;48.106;-1.696;2024-03-02T12:02:23;9.90;99.90
22968;DHT22;11650;48.106;-1.696;2024-03-02T12:04:49;10.10;99.90
22968;DHT22;11650;48.106;-1.696;2024-03-02T12:07:20;10.20;99.90
22968;DHT22;11650;48.106;-1.696;2024-03-02T12:09:47;10.40;99.90
22968;DHT22;11650;48.106;-1.696;2024-03-02T12:12:12;10.60;99.90
22968;DHT22;11650;48.106;-1.696;2024-03-02T12:14:53;10.70;99.90
22968;DHT22;11650;48.106;-1.696;2024-03-02T12:17:21;10.80;99.90
22968;DHT22;11650;48.106;-1.696;2024-03-02T12:19:47;10.90;99.90
22968;DHT22;11650;48.106;-1.696;2024-03-02T12:22:13;11.00;99.90
22968;DHT22;11650;48.106;-1.696;2024-03-02T12:24:39;10.90;99.90
22968;DHT22;11650;48.106;-1.696;2024-03-02T12:27:06;11.10;99.90
22968;DHT22;11650;48.106;-1.696;2024-03-02T12:29:32;11.20;99.90
22968;DHT22;11650;48.106;-1.696;2024-03-02T12:31:59;11.30;99.90
22968;DHT22;11650;48.106;-1.696;2024-03-02T12:34:26;11.50;99.90
22968;DHT22;11650;48.106;-1.696;2024-03-02T12:36:51;11.60;99.90
22968;DHT22;11650;48.106;-1.696;2024-03-02T12:39:21;11.50;99.90
22968;DHT22;11650;48.106;-1.696;2024-03-02T12:41:49;11.80;99.90
22968;DHT22;11650;48.106;-1.696;2024-03-02T12:44:16;11.90;99.90
22968;DHT22;11650;48.106;-1.696;2024-03-02T12:46:42;11.60;99.90
22968;DHT22;11650;48.106;-1.696;2024-03-02T12:49:10;11.40;99.90
22968;DHT22;11650;48.106;-1.696;2024-03-02T12:51:40;11.30;99.90
22968;DHT22;11650;48.106;-1.696;2024-03-02T12:54:10;11.00;99.90
22968;DHT22;11650;48.106;-1.696;2024-03-02T12:56:40;10.70;99.90
22968;DHT22;11650;48.106;-1.696;2024-03-02T12:59:07;10.70;99.90
22968;DHT22;11650;48.106;-1.696;2024-03-02T13:01:36;10.50;99.90
22968;DHT22;11650;48.106;-1.696;2024-03-02T13:04:02;10.50;99.90
22968;DHT22;11650;48.106;-1.696;2024-03-02T13:06:28;10.50;99.90
22968;DHT22;11650;48.106;-1.696;2024-03-02T13:08:54;10.50;99.90
22968;DHT22;11650;48.106;-1.696;2024-03-02T13:11:22;10.70;99.90
22968;DHT22;11650;48.106;-1.696;2024-03-02T13:13:48;11.10;99.90
22968;DHT22;11650;48.106;-1.696;2024-03-02T13:16:14;12.10;99.90
22968;DHT22;11650;48.106;-1.696;2024-03-02T13:18:42;13.20;99.90
22968;DHT22;11650;48.106;-1.696;2024-03-02T13:21:08;13.90;99.90
22968;DHT22;11650;48.106;-1.696;2024-03-02T13:23:34;12.90;99.90
22968;DHT22;11650;48.106;-1.696;2024-03-02T13:26:00;12.40;99.90
22968;DHT22;11650;48.106;-1.696;2024-03-02T13:28:26;11.90;99.90
22968;DHT22;11650;48.106;-1.696;2024-03-02T13:30:52;11.70;99.90
22968;DHT22;11650;48.106;-1.696;2024-03-02T13:33:18;11.40;99.90
22968;DHT22;11650;48.106;-1.696;2024-03-02T13:35:50;11.30;99.90
22968;DHT22;11650;48.106;-1.696;2024-03-02T13:38:19;11.20;99.90
22968;DHT22;11650;48.106;-1.696;2024-03-02T13:40:49;11.00;99.90
22968;DHT22;11650;48.106;-1.696;2024-03-02T13:43:18;10.80;99.90
22968;DHT22;11650;48.106;-1.696;2024-03-02T13:45:44;10.80;99.90
22968;DHT22;11650;48.106;-1.696;2024-03-02T13:48:10;10.90;99.90
22968;DHT22;11650;48.106;-1.696;2024-03-02T13:50:36;11.10;99.90
22968;DHT22;11650;48.106;-1.696;2024-03-02T13:53:01;11.30;99.90
22968;DHT22;11650;48.106;-1.696;2024-03-02T13:55:28;11.40;99.90
22968;DHT22;11650;48.106;-1.696;2024-03-02T13:57:54;11.50;99.90
22968;DHT22;11650;48.106;-1.696;2024-03-02T14:00:19;11.70;99.90
22968;DHT22;11650;48.106;-1.696;2024-03-02T14:02:45;11.70;99.90
22968;DHT22;11650;48.106;-1.696;2024-03-02T14:05:12;11.50;99.90
22968;DHT22;11650;48.106;-1.696;2024-03-02T14:07:39;11.90;99.90
22968;DHT22;11650;48.106;-1.696;2024-03-02T14:10:05;11.80;99.90
22968;DHT22;11650;48.106;-1.696;2024-03-02T14:12:31;11.50;99.90
22968;DHT22;11650;48.106;-1.696;2024-03-02T14:14:56;11.70;99.90
22968;DHT22;11650;48.106;-1.696;2024-03-02T14:17:24;12.10;99.90
22968;DHT22;11650;48.106;-1.696;2024-03-02T14:19:50;12.40;99.90
22968;DHT22;11650;48.106;-1.696;2024-03-02T14:22:16;12.90;99.90
22968;DHT22;11650;48.106;-1.696;2024-03-02T14:24:43;13.10;99.90
22968;DHT22;11650;48.106;-1.696;2024-03-02T14:27:09;13.60;99.90
22968;DHT22;11650;48.106;-1.696;2024-03-02T14:29:35;13.80;99.90
22968;DHT22;11650;48.106;-1.696;2024-03-02T14:32:03;13.60;99.90
22968;DHT22;11650;48.106;-1.696;2024-03-02T14:34:29;13.20;99.90
22968;DHT22;11650;48.106;-1.696;2024-03-02T14:36:55;13.40;99.90
22968;DHT22;11650;48.106;-1.696;2024-03-02T14:39:20;14.00;99.90
22968;DHT22;11650;48.106;-1.696;2024-03-02T14:41:46;14.80;99.90
22968;DHT22;11650;48.106;-1.696;2024-03-02T14:44:12;14.90;99.90
22968;DHT22;11650;48.106;-1.696;2024-03-02T14:46:38;14.30;99.90
22968;DHT22;11650;48.106;-1.696;2024-03-02T14:49:04;14.00;99.90
22968;DHT22;11650;48.106;-1.696;2024-03-02T14:51:29;13.50;99.90
22968;DHT22;11650;48.106;-1.696;2024-03-02T14:53:55;13.20;99.90
22968;DHT22;11650;48.106;-1.696;2024-03-02T14:56:21;13.10;99.90
22968;DHT22;11650;48.106;-1.696;2024-03-02T14:58:47;13.00;99.90
22968;DHT22;11650;48.106;-1.696;2024-03-02T15:01:13;12.60;99.90
22968;DHT22;11650;48.106;-1.696;2024-03-02T15:03:40;12.20;99.90
22968;DHT22;11650;48.106;-1.696;2024-03-02T15:06:05;12.20;99.90
22968;DHT22;11650;48.106;-1.696;2024-03-02T15:08:32;11.80;99.90
22968;DHT22;11650;48.106;-1.696;2024-03-02T15:10:58;11.90;99.90
22968;DHT22;11650;48.106;-1.696;2024-03-02T15:13:25;11.70;99.90
22968;DHT22;11650;48.106;-1.696;2024-03-02T15:15:52;11.40;99.90
22968;DHT22;11650;48.106;-1.696;2024-03-02T15:18:18;11.40;99.90
22968;DHT22;11650;48.106;-1.696;2024-03-02T15:20:43;11.30;99.90
22968;DHT22;11650;48.106;-1.696;2024-03-02T15:23:09;11.20;99.90
22968;DHT22;11650;48.106;-1.696;2024-03-02T15:25:34;11.30;99.90
22968;DHT22;11650;48.106;-1.696;2024-03-02T15:28:00;11.70;99.90
22968;DHT22;11650;48.106;-1.696;2024-03-02T15:30:26;12.80;99.90